createdAt,value
2023-04-16T00:02:30.329Z,23.30
2023-04-16T00:05:22.495Z,24.40
2023-04-16T00:08:14.632Z,25.70
2023-04-16T00:11:06.731Z,29.10
2023-04-16T00:13:58.943Z,26.70
2023-04-16T00:16:50.909Z,28.60
2023-04-16T00:19:42.944Z,24.70
2023-04-16T00:22:34.903Z,26.00
2023-04-16T00:25:26.763Z,27.60
2023-04-16T00:28:18.717Z,27.00
2023-04-16T00:31:13.954Z,28.20
2023-04-16T00:34:06.332Z,29.20
2023-04-16T00:36:58.362Z,28.00
2023-04-16T00:39:51.073Z,32.60
2023-04-16T00:42:43.063Z,33.20
2023-04-16T00:45:35.151Z,28.60
2023-04-16T00:48:28.318Z,32.80
2023-04-16T00:51:21.340Z,30.20
2023-04-16T00:54:13.347Z,32.60
2023-04-16T00:56:47.928Z,29.80
2023-04-16T00:59:28.767Z,28.50
2023-04-16T01:02:20.875Z,31.40
2023-04-16T01:05:13.262Z,29.50
2023-04-16T01:08:05.374Z,29.10
2023-04-16T01:10:57.422Z,31.20
2023-04-16T01:13:49.394Z,25.80
2023-04-16T01:16:41.394Z,29.90
2023-04-16T01:19:36.246Z,28.90
2023-04-16T01:22:28.409Z,28.30
2023-04-16T01:25:20.397Z,30.10
2023-04-16T01:28:12.428Z,26.70
2023-04-16T01:31:04.619Z,26.40
2023-04-16T01:33:56.513Z,23.70
2023-04-16T01:36:48.517Z,25.20
2023-04-16T01:39:40.484Z,25.50
2023-04-16T01:42:33.078Z,26.90
2023-04-16T01:45:25.213Z,28.40
2023-04-16T01:50:52.641Z,26.00
2023-04-16T01:53:38.134Z,29.30
2023-04-16T01:56:30.154Z,29.40
2023-04-16T01:59:22.101Z,25.90
2023-04-16T02:02:16.361Z,25.20
2023-04-16T02:05:09.200Z,28.80
2023-04-16T02:08:01.284Z,23.10
2023-04-16T02:10:53.534Z,24.00
2023-04-16T02:13:45.527Z,26.30
2023-04-16T02:16:37.535Z,23.90
2023-04-16T02:19:29.763Z,26.10
2023-04-16T02:22:21.722Z,29.20
2023-04-16T02:25:14.154Z,27.90
2023-04-16T02:28:06.313Z,27.90
2023-04-16T02:30:59.104Z,29.80
2023-04-16T02:33:51.138Z,26.80
2023-04-16T02:36:43.122Z,27.30
2023-04-16T02:39:35.065Z,25.50
2023-04-16T02:42:27.204Z,27.40
2023-04-16T02:45:19.349Z,27.30
2023-04-16T02:48:09.661Z,25.90
2023-04-16T02:51:01.924Z,27.90
2023-04-16T02:53:53.893Z,27.80
2023-04-16T02:56:45.851Z,26.10
2023-04-16T02:59:37.986Z,25.00
2023-04-16T03:02:30.125Z,26.80
2023-04-16T03:05:05.563Z,27.30
2023-04-16T03:07:57.524Z,26.30
2023-04-16T03:10:49.484Z,30.30
2023-04-16T03:13:41.392Z,26.30
2023-04-16T03:16:33.369Z,27.70
2023-04-16T03:19:25.700Z,23.80
2023-04-16T03:22:02.868Z,28.70
2023-04-16T03:24:54.804Z,28.90
2023-04-16T03:27:46.836Z,31.00
2023-04-16T03:30:38.963Z,30.30
2023-04-16T03:33:31.183Z,28.90
2023-04-16T03:36:23.844Z,28.20
2023-04-16T03:39:16.175Z,28.90
2023-04-16T03:41:51.173Z,25.20
2023-04-16T03:44:43.199Z,27.30
2023-04-16T03:47:35.190Z,33.40
2023-04-16T03:50:27.230Z,31.80
2023-04-16T03:53:19.365Z,35.70
2023-04-16T03:56:11.499Z,35.30
2023-04-16T03:58:46.422Z,38.30
2023-04-16T04:01:38.486Z,41.90
2023-04-16T04:04:16.310Z,34.30
2023-04-16T04:07:08.461Z,35.70
2023-04-16T04:09:40.224Z,39.00
2023-04-16T04:12:33.334Z,42.10
2023-04-16T04:15:12.681Z,37.70
2023-04-16T04:18:04.646Z,37.80
2023-04-16T04:20:57.144Z,44.40
2023-04-16T04:23:31.749Z,42.70
2023-04-16T04:26:23.857Z,36.00
2023-04-16T04:29:15.927Z,39.00
2023-04-16T04:32:08.156Z,32.40
2023-04-16T04:35:01.143Z,38.10
2023-04-16T04:37:53.221Z,40.60
2023-04-16T04:40:45.278Z,39.50
2023-04-16T04:43:37.316Z,44.60
2023-04-16T04:46:11.872Z,37.90
2023-04-16T04:49:03.844Z,38.70
2023-04-16T04:51:56.020Z,37.90
2023-04-16T04:54:47.944Z,33.40
2023-04-16T04:57:39.901Z,38.90
2023-04-16T05:00:27.881Z,37.70
2023-04-16T05:03:22.764Z,36.00
2023-04-16T05:06:14.901Z,38.60
2023-04-16T05:09:11.462Z,34.80
2023-04-16T05:12:04.670Z,30.70
2023-04-16T05:14:56.616Z,42.70
2023-04-16T05:17:48.667Z,40.60
2023-04-16T05:20:40.783Z,41.90
2023-04-16T05:23:32.816Z,44.30
2023-04-16T05:26:24.800Z,44.60
2023-04-16T05:29:16.776Z,52.40
2023-04-16T05:31:51.402Z,48.70
2023-04-16T05:34:43.384Z,46.40
2023-04-16T05:37:35.428Z,53.80
2023-04-16T05:40:13.254Z,46.30
2023-04-16T05:43:05.269Z,50.80
2023-04-16T05:45:42.099Z,44.50
2023-04-16T05:48:34.152Z,36.70
2023-04-16T05:51:27.214Z,39.40
2023-04-16T05:54:19.239Z,32.00
2023-04-16T05:57:11.687Z,36.10
2023-04-16T06:00:03.924Z,36.90
2023-04-16T06:02:56.058Z,31.00
2023-04-16T06:05:48.233Z,32.80
2023-04-16T06:08:40.255Z,31.90
2023-04-16T06:11:34.036Z,34.60
2023-04-16T06:14:10.429Z,30.30
2023-04-16T06:16:47.433Z,29.50
2023-04-16T06:19:39.389Z,28.80
2023-04-16T06:22:31.607Z,27.50
2023-04-16T06:25:23.639Z,22.70
2023-04-16T06:28:15.665Z,22.10
2023-04-16T06:31:07.987Z,17.40
2023-04-16T06:33:59.972Z,15.20
2023-04-16T06:36:52.120Z,19.10
2023-04-16T06:39:44.192Z,16.20
2023-04-16T06:42:36.315Z,17.00
2023-04-16T06:45:28.393Z,16.60
2023-04-16T06:48:20.403Z,19.10
2023-04-16T06:51:13.093Z,16.80
2023-04-16T06:54:05.141Z,18.60
2023-04-16T06:56:57.336Z,16.40
2023-04-16T06:59:34.624Z,21.10
2023-04-16T07:02:26.998Z,16.20
2023-04-16T07:05:19.429Z,18.90
2023-04-16T07:08:11.907Z,21.40
2023-04-16T07:11:04.466Z,18.00
2023-04-16T07:13:57.691Z,18.50
2023-04-16T07:16:49.769Z,21.10
2023-04-16T07:19:30.514Z,19.80
2023-04-16T07:22:05.646Z,15.40
2023-04-16T07:24:57.646Z,12.80
2023-04-16T07:27:38.734Z,14.30
2023-04-16T07:30:34.252Z,14.10
2023-04-16T07:33:16.774Z,12.10
2023-04-16T07:35:48.811Z,11.60
2023-04-16T07:38:41.232Z,13.90
2023-04-16T07:41:33.424Z,16.60
2023-04-16T07:44:25.467Z,13.50
2023-04-16T07:47:17.622Z,12.90
2023-04-16T07:49:54.938Z,10.60
2023-04-16T07:52:47.555Z,11.70
2023-04-16T07:55:39.617Z,9.60
2023-04-16T07:58:31.870Z,11.80
2023-04-16T08:01:09.456Z,11.80
2023-04-16T08:04:01.652Z,11.40
2023-04-16T08:06:51.464Z,12.20
2023-04-16T08:09:52.115Z,14.70
2023-04-16T08:12:44.433Z,11.90
2023-04-16T08:15:36.504Z,15.70
2023-04-16T08:18:28.834Z,18.50
2023-04-16T08:21:08.449Z,18.40
2023-04-16T08:23:43.044Z,18.20
2023-04-16T08:26:20.451Z,20.30
2023-04-16T08:29:12.604Z,16.00
2023-04-16T08:32:04.771Z,19.90
2023-04-16T08:34:57.224Z,15.10
2023-04-16T08:37:49.242Z,16.40
2023-04-16T08:40:42.869Z,16.10
2023-04-16T08:43:37.915Z,13.00
2023-04-16T08:46:13.698Z,12.30
2023-04-16T08:48:54.937Z,10.20
2023-04-16T08:51:35.127Z,11.90
2023-04-16T08:57:38.273Z,10.80
2023-04-16T09:00:32.752Z,9.30
2023-04-16T09:03:25.321Z,7.70
2023-04-16T09:06:18.243Z,10.10
2023-04-16T09:09:12.387Z,11.60
2023-04-16T09:12:05.790Z,10.70
2023-04-16T09:15:02.723Z,10.10
2023-04-16T09:17:56.478Z,8.90
2023-04-16T09:20:48.675Z,8.90
2023-04-16T09:23:38.419Z,8.70
2023-04-16T09:26:31.100Z,7.70
2023-04-16T09:29:37.351Z,6.70
2023-04-16T09:32:30.464Z,7.10
2023-04-16T09:35:22.783Z,6.90
2023-04-16T09:38:01.342Z,7.60
2023-04-16T09:41:09.440Z,7.10
2023-04-16T09:44:04.189Z,7.10
2023-04-16T09:46:46.232Z,6.60
2023-04-16T09:49:29.207Z,6.80
2023-04-16T09:52:23.372Z,12.10
2023-04-16T09:55:15.401Z,18.50
2023-04-16T09:58:12.317Z,12.10
2023-04-16T10:01:06.921Z,11.30
2023-04-16T10:03:59.598Z,30.10
2023-04-16T10:07:05.948Z,10.10
2023-04-16T10:09:59.439Z,6.60
2023-04-16T10:12:51.997Z,6.30
2023-04-16T10:15:44.329Z,5.50
2023-04-16T10:18:38.261Z,5.40
2023-04-16T10:21:33.843Z,33.20
2023-04-16T10:24:27.352Z,20.70
2023-04-16T10:27:20.379Z,10.30
2023-04-16T10:30:15.047Z,5.60
2023-04-16T10:32:58.286Z,14.80
2023-04-16T10:36:04.920Z,15.00
2023-04-16T10:39:01.852Z,11.40
2023-04-16T10:42:10.090Z,6.20
2023-04-16T10:45:04.165Z,5.20
2023-04-16T10:47:58.806Z,4.40
2023-04-16T10:50:58.723Z,4.60
2023-04-16T10:53:50.915Z,4.90
2023-04-16T10:56:45.423Z,9.30
2023-04-16T10:59:39.766Z,4.90
2023-04-16T11:02:32.436Z,7.60
2023-04-16T11:05:46.745Z,6.50
2023-04-16T11:08:53.459Z,4.80
2023-04-16T11:11:48.254Z,17.30
2023-04-16T11:14:20.393Z,6.00
2023-04-16T11:16:57.712Z,8.70
2023-04-16T11:19:50.083Z,19.20
2023-04-16T11:22:46.513Z,13.80
2023-04-16T11:25:38.361Z,11.20
2023-04-16T11:28:36.876Z,8.60
2023-04-16T11:31:29.017Z,8.70
2023-04-16T11:34:04.135Z,6.00
2023-04-16T11:36:56.190Z,17.10
2023-04-16T11:39:55.322Z,6.70
2023-04-16T11:42:47.397Z,5.10
2023-04-16T11:45:39.494Z,7.60
2023-04-16T11:48:51.984Z,5.50
2023-04-16T11:51:44.869Z,24.40
2023-04-16T11:54:37.871Z,21.50
2023-04-16T11:57:32.496Z,9.60
2023-04-16T12:00:16.436Z,6.80
2023-04-16T12:02:53.434Z,6.60
2023-04-16T12:05:45.691Z,5.50
2023-04-16T12:08:37.686Z,9.50
2023-04-16T12:11:43.575Z,6.00
2023-04-16T12:14:35.748Z,6.10
2023-04-16T12:17:27.872Z,15.30
2023-04-16T12:20:19.859Z,7.60
2023-04-16T12:23:13.717Z,6.50
2023-04-16T12:26:12.162Z,7.30
2023-04-16T12:29:21.841Z,6.60
2023-04-16T12:32:24.983Z,6.20
2023-04-16T12:35:02.305Z,5.80
2023-04-16T12:37:54.260Z,5.70
2023-04-16T12:40:29.018Z,5.40
2023-04-16T12:43:21.930Z,5.10
2023-04-16T12:46:13.947Z,6.00
2023-04-16T12:49:06.390Z,4.60
2023-04-16T12:51:58.416Z,5.70
2023-04-16T12:54:51.109Z,12.60
2023-04-16T12:57:28.811Z,6.20
2023-04-16T13:00:21.561Z,6.60
2023-04-16T13:03:13.803Z,5.80
2023-04-16T13:06:06.339Z,6.40
2023-04-16T13:08:58.814Z,7.50
2023-04-16T13:11:51.017Z,7.70
2023-04-16T13:14:44.953Z,8.40
2023-04-16T13:17:37.173Z,8.60
2023-04-16T13:20:29.205Z,10.70
2023-04-16T13:23:21.330Z,5.90
2023-04-16T13:26:15.434Z,5.40
2023-04-16T13:29:07.525Z,5.80
2023-04-16T13:31:59.847Z,5.60
2023-04-16T13:34:52.201Z,6.80
2023-04-16T13:37:44.235Z,5.40
2023-04-16T13:40:36.278Z,6.30
2023-04-16T13:43:28.294Z,8.30
2023-04-16T13:46:20.454Z,5.40
2023-04-16T13:49:12.593Z,5.10
2023-04-16T13:52:04.704Z,6.20
2023-04-16T13:54:46.829Z,5.30
2023-04-16T13:57:38.867Z,7.40
2023-04-16T14:00:30.988Z,6.60
2023-04-16T14:03:23.333Z,6.30
2023-04-16T14:06:18.009Z,5.70
2023-04-16T14:09:10.900Z,5.80
2023-04-16T14:12:03.217Z,6.80
2023-04-16T14:14:55.219Z,6.00
2023-04-16T14:17:27.199Z,4.90
2023-04-16T14:20:19.188Z,4.90
2023-04-16T14:23:12.427Z,5.10
2023-04-16T14:26:04.478Z,5.20
2023-04-16T14:28:56.522Z,4.80
2023-04-16T14:31:48.609Z,5.10
2023-04-16T14:34:40.689Z,5.10
2023-04-16T14:37:18.599Z,5.30
2023-04-16T14:40:12.355Z,5.10
2023-04-16T14:43:04.427Z,4.70
2023-04-16T14:45:58.611Z,5.80
2023-04-16T14:48:50.661Z,5.30
2023-04-16T14:51:42.907Z,6.20
2023-04-16T14:54:35.651Z,4.80
2023-04-16T14:57:36.017Z,6.50
2023-04-16T15:00:28.521Z,6.10
2023-04-16T15:03:03.127Z,6.20
2023-04-16T15:05:56.039Z,7.10
2023-04-16T15:08:48.048Z,6.80
2023-04-16T15:11:40.017Z,5.70
2023-04-16T15:14:22.553Z,6.40
2023-04-16T15:17:14.732Z,5.60
2023-04-16T15:20:09.257Z,6.50
2023-04-16T15:23:01.285Z,6.00
2023-04-16T15:25:53.162Z,5.50
2023-04-16T15:28:45.200Z,5.90
2023-04-16T15:31:37.200Z,6.20
2023-04-16T15:34:12.368Z,6.00
2023-04-16T15:37:04.591Z,6.40
2023-04-16T15:39:56.630Z,5.20
2023-04-16T15:42:48.731Z,5.30
2023-04-16T15:45:31.858Z,5.80
2023-04-16T15:48:24.300Z,4.90
2023-04-16T15:51:16.506Z,5.60
2023-04-16T15:54:08.754Z,5.30
2023-04-16T15:57:00.762Z,5.10
2023-04-16T16:00:05.986Z,5.50
2023-04-16T16:02:58.896Z,5.80
2023-04-16T16:05:36.258Z,5.00
2023-04-16T16:08:28.936Z,5.10
2023-04-16T16:11:12.247Z,6.70
2023-04-16T16:14:04.191Z,5.00
2023-04-16T16:16:56.301Z,5.80
2023-04-16T16:19:48.328Z,7.30
2023-04-16T16:22:37.547Z,5.50
2023-04-16T16:25:30.277Z,5.70
2023-04-16T16:28:24.048Z,5.20
2023-04-16T16:31:07.204Z,6.20
2023-04-16T16:33:59.282Z,6.00
2023-04-16T16:36:51.545Z,6.20
2023-04-16T16:39:43.684Z,5.20
2023-04-16T16:42:35.731Z,5.10
2023-04-16T16:45:28.554Z,5.70
2023-04-16T16:48:20.585Z,6.60
2023-04-16T16:50:55.292Z,6.80
2023-04-16T16:53:47.933Z,7.20
2023-04-16T16:56:39.887Z,8.10
2023-04-16T16:59:31.901Z,7.70
2023-04-16T17:02:24.210Z,8.10
2023-04-16T17:05:16.580Z,7.40
2023-04-16T17:08:08.722Z,7.30
2023-04-16T17:11:03.431Z,9.60
2023-04-16T17:13:55.634Z,10.40
2023-04-16T17:16:27.495Z,11.80
2023-04-16T17:19:19.541Z,9.70
2023-04-16T17:22:11.887Z,9.10
2023-04-16T17:24:46.607Z,10.00
2023-04-16T17:27:41.567Z,11.20
2023-04-16T17:30:34.467Z,11.30
2023-04-16T17:33:09.325Z,10.50
2023-04-16T17:36:01.359Z,11.40
2023-04-16T17:38:53.554Z,11.50
2023-04-16T17:41:45.731Z,10.40
2023-04-16T17:44:37.743Z,12.90
2023-04-16T17:47:29.827Z,11.90
2023-04-16T17:50:22.102Z,17.90
2023-04-16T17:53:14.391Z,21.60
2023-04-16T17:55:57.751Z,19.00
2023-04-16T17:58:49.688Z,21.70
2023-04-16T18:01:41.856Z,20.10
2023-04-16T18:04:34.265Z,19.20
2023-04-16T18:07:26.474Z,15.90
2023-04-16T18:10:11.776Z,16.50
2023-04-16T18:13:03.731Z,17.40
2023-04-16T18:15:56.062Z,15.80
2023-04-16T18:18:48.458Z,19.10
2023-04-16T18:21:40.511Z,20.60
2023-04-16T18:24:33.334Z,19.00
2023-04-16T18:27:25.414Z,16.40
2023-04-16T18:30:23.432Z,15.50
2023-04-16T18:36:04.892Z,14.30
2023-04-16T18:38:56.917Z,18.00
2023-04-16T18:41:52.020Z,17.10
2023-04-16T18:44:32.593Z,22.90
2023-04-16T18:47:24.784Z,18.10
2023-04-16T18:50:17.005Z,17.10
2023-04-16T18:53:09.013Z,16.90
2023-04-16T18:56:01.173Z,17.00
2023-04-16T18:58:53.352Z,19.10
2023-04-16T19:01:27.930Z,15.80
2023-04-16T19:04:20.452Z,16.10
2023-04-16T19:07:12.478Z,17.50
2023-04-16T19:09:54.839Z,16.20
2023-04-16T19:12:46.777Z,17.30
2023-04-16T19:15:38.917Z,15.10
2023-04-16T19:18:31.100Z,15.80
2023-04-16T19:21:23.124Z,14.80
2023-04-16T19:23:59.127Z,15.10
2023-04-16T19:26:40.036Z,16.30
2023-04-16T19:29:35.724Z,15.70
2023-04-16T19:32:27.804Z,14.70
2023-04-16T19:35:19.987Z,13.80
2023-04-16T19:38:12.013Z,18.20
2023-04-16T19:40:51.887Z,19.50
2023-04-16T19:43:25.861Z,30.20
2023-04-16T19:46:18.034Z,22.60
2023-04-16T19:49:10.364Z,20.70
2023-04-16T19:52:02.616Z,21.00
2023-04-16T19:54:54.565Z,22.10
2023-04-16T19:57:29.109Z,24.10
2023-04-16T20:00:21.603Z,26.00
2023-04-16T20:03:13.624Z,27.00
2023-04-16T20:05:51.801Z,26.30
2023-04-16T20:08:44.538Z,22.30
2023-04-16T20:11:36.655Z,27.70
2023-04-16T20:14:28.479Z,25.90
2023-04-16T20:17:10.077Z,27.40
2023-04-16T20:20:09.741Z,24.80
2023-04-16T20:23:01.704Z,28.70
2023-04-16T20:25:54.063Z,27.20
2023-04-16T20:28:46.322Z,26.30
2023-04-16T20:31:38.284Z,28.60
2023-04-16T20:34:30.365Z,33.00
2023-04-16T20:37:04.593Z,32.40
2023-04-16T20:39:56.580Z,30.30
2023-04-16T20:42:50.866Z,31.30
2023-04-16T20:45:46.146Z,28.10
2023-04-16T20:48:38.735Z,34.40
2023-04-16T20:51:31.545Z,34.10
2023-04-16T20:54:24.547Z,34.50
2023-04-16T20:57:16.501Z,34.60
2023-04-16T21:00:12.067Z,32.10
2023-04-16T21:03:04.429Z,33.50
2023-04-16T21:05:50.989Z,30.70
2023-04-16T21:08:43.002Z,26.00
2023-04-16T21:11:35.823Z,31.70
2023-04-16T21:14:27.893Z,30.20
2023-04-16T21:17:19.903Z,31.70
2023-04-16T21:20:14.007Z,27.90
2023-04-16T21:23:06.610Z,25.60
2023-04-16T21:25:59.101Z,28.60
2023-04-16T21:28:43.959Z,28.70
2023-04-16T21:31:36.030Z,30.00
2023-04-16T21:34:10.349Z,30.40
2023-04-16T21:36:44.958Z,28.10
2023-04-16T21:39:36.914Z,28.30
2023-04-16T21:42:28.990Z,29.80
2023-04-16T21:45:21.272Z,28.00
2023-04-16T21:47:56.088Z,24.80
2023-04-16T21:50:38.009Z,26.40
2023-04-16T21:53:31.930Z,26.90
2023-04-16T21:56:20.198Z,22.80
2023-04-16T21:59:12.246Z,21.80
2023-04-16T22:02:04.566Z,23.90
2023-04-16T22:04:56.639Z,21.50
2023-04-16T22:07:48.650Z,18.80
2023-04-16T22:10:40.799Z,17.60
2023-04-16T22:13:22.711Z,19.60
2023-04-16T22:16:07.505Z,19.50
2023-04-16T22:18:49.384Z,14.20
2023-04-16T22:21:41.417Z,19.70
2023-04-16T22:24:33.517Z,18.90
2023-04-16T22:27:15.854Z,21.10
2023-04-16T22:30:10.195Z,16.40
2023-04-16T22:33:03.705Z,17.60
2023-04-16T22:35:55.936Z,17.60
2023-04-16T22:38:38.055Z,17.20
2023-04-16T22:41:12.154Z,16.60
2023-04-16T22:43:51.166Z,18.10
2023-04-16T22:46:45.018Z,15.00
2023-04-16T22:49:37.028Z,16.50
2023-04-16T22:52:19.834Z,14.90
2023-04-16T22:55:12.305Z,14.80
2023-04-16T22:58:04.295Z,14.30
2023-04-16T23:00:59.438Z,15.00
2023-04-16T23:03:51.667Z,14.40
2023-04-16T23:06:43.704Z,14.60
2023-04-16T23:09:35.654Z,12.40
2023-04-16T23:12:27.738Z,13.50
2023-04-16T23:15:19.914Z,13.00
2023-04-16T23:18:12.147Z,13.40
2023-04-16T23:21:04.267Z,13.90
2023-04-16T23:23:57.103Z,11.40
2023-04-16T23:26:49.093Z,14.00
2023-04-16T23:29:41.113Z,13.60
2023-04-16T23:35:20.232Z,13.30
2023-04-16T23:38:12.194Z,13.70
2023-04-16T23:41:04.212Z,14.90
2023-04-16T23:43:56.258Z,14.60
2023-04-16T23:46:48.334Z,12.60
2023-04-16T23:49:40.471Z,14.70
2023-04-16T23:52:14.749Z,13.50
2023-04-16T23:55:07.587Z,13.90
2023-04-16T23:57:59.501Z,12.70
